sensor_id;sensor_type;location;lat;lon;timestamp;pressure;altitude;pressure_sealevel;temperature;humidity
76358;BME280;65185;21.060;105.826;2023-04-12T00:00:52;101212.34;;;23.19;100.00
76358;BME280;65185;21.060;105.826;2023-04-12T00:03:19;101217.03;;;23.18;100.00
76358;BME280;65185;21.060;105.826;2023-04-12T00:05:47;101218.19;;;23.17;100.00
76358;BME280;65185;21.060;105.826;2023-04-12T00:08:20;101220.91;;;23.17;100.00
76358;BME280;65185;21.060;105.826;2023-04-12T00:10:52;101224.47;;;23.18;100.00
76358;BME280;65185;21.060;105.826;2023-04-12T00:13:19;101225.72;;;23.20;100.00
76358;BME280;65185;21.060;105.826;2023-04-12T00:15:45;101229.56;;;23.28;100.00
76358;BME280;65185;21.060;105.826;2023-04-12T00:18:12;101231.31;;;23.33;100.00
76358;BME280;65185;21.060;105.826;2023-04-12T00:20:46;101232.47;;;23.32;100.00
76358;BME280;65185;21.060;105.826;2023-04-12T00:23:13;101236.13;;;23.36;100.00
76358;BME280;65185;21.060;105.826;2023-04-12T00:25:40;101234.66;;;23.47;100.00
76358;BME280;65185;21.060;105.826;2023-04-12T00:28:07;101235.81;;;23.46;100.00
76358;BME280;65185;21.060;105.826;2023-04-12T00:30:33;101233.69;;;23.43;100.00
76358;BME280;65185;21.060;105.826;2023-04-12T00:33:00;101240.16;;;23.47;100.00
76358;BME280;65185;21.060;105.826;2023-04-12T00:35:27;101232.09;;;23.42;100.00
76358;BME280;65185;21.060;105.826;2023-04-12T00:37:54;101245.78;;;23.42;100.00
76358;BME280;65185;21.060;105.826;2023-04-12T00:40:21;101245.16;;;23.45;100.00
76358;BME280;65185;21.060;105.826;2023-04-12T00:42:48;101254.50;;;23.44;100.00
76358;BME280;65185;21.060;105.826;2023-04-12T00:45:15;101246.78;;;23.46;100.00
76358;BME280;65185;21.060;105.826;2023-04-12T00:47:41;101249.97;;;23.48;100.00
76358;BME280;65185;21.060;105.826;2023-04-12T00:50:09;101253.19;;;23.41;100.00
76358;BME280;65185;21.060;105.826;2023-04-12T00:52:38;101247.72;;;23.50;100.00
76358;BME280;65185;21.060;105.826;2023-04-12T00:55:06;101256.28;;;23.48;100.00
76358;BME280;65185;21.060;105.826;2023-04-12T00:57:37;101262.84;;;23.56;100.00
76358;BME280;65185;21.060;105.826;2023-04-12T01:00:06;101266.88;;;23.58;100.00
76358;BME280;65185;21.060;105.826;2023-04-12T01:02:42;101254.16;;;23.54;100.00
76358;BME280;65185;21.060;105.826;2023-04-12T01:05:13;101264.00;;;23.55;100.00
76358;BME280;65185;21.060;105.826;2023-04-12T01:11:04;101260.88;;;23.65;100.00
76358;BME280;65185;21.060;105.826;2023-04-12T01:16:52;101271.00;;;23.73;100.00
76358;BME280;65185;21.060;105.826;2023-04-12T01:25:37;101272.66;;;23.66;100.00
76358;BME280;65185;21.060;105.826;2023-04-12T01:28:04;101269.72;;;23.71;100.00
76358;BME280;65185;21.060;105.826;2023-04-12T01:30:32;101272.25;;;23.76;100.00
76358;BME280;65185;21.060;105.826;2023-04-12T01:33:02;101278.56;;;23.76;100.00
76358;BME280;65185;21.060;105.826;2023-04-12T01:35:31;101290.84;;;23.70;100.00
76358;BME280;65185;21.060;105.826;2023-04-12T01:37:58;101289.72;;;23.71;100.00
76358;BME280;65185;21.060;105.826;2023-04-12T01:40:27;101291.97;;;23.69;100.00
76358;BME280;65185;21.060;105.826;2023-04-12T01:43:10;101297.31;;;23.66;100.00
76358;BME280;65185;21.060;105.826;2023-04-12T01:45:38;101291.03;;;23.65;100.00
76358;BME280;65185;21.060;105.826;2023-04-12T01:48:10;101293.84;;;23.56;100.00
76358;BME280;65185;21.060;105.826;2023-04-12T01:53:41;101294.78;;;23.52;100.00
76358;BME280;65185;21.060;105.826;2023-04-12T01:56:11;101287.72;;;23.51;100.00
76358;BME280;65185;21.060;105.826;2023-04-12T01:58:39;101286.09;;;23.50;100.00
76358;BME280;65185;21.060;105.826;2023-04-12T02:01:09;101295.59;;;23.52;100.00
76358;BME280;65185;21.060;105.826;2023-04-12T02:03:37;101294.47;;;23.53;100.00
76358;BME280;65185;21.060;105.826;2023-04-12T02:06:05;101288.53;;;23.51;100.00
76358;BME280;65185;21.060;105.826;2023-04-12T02:08:32;101290.94;;;23.53;100.00
76358;BME280;65185;21.060;105.826;2023-04-12T02:11:00;101287.19;;;23.57;100.00
76358;BME280;65185;21.060;105.826;2023-04-12T02:13:26;101281.25;;;23.55;100.00
76358;BME280;65185;21.060;105.826;2023-04-12T02:15:54;101288.81;;;23.58;100.00
76358;BME280;65185;21.060;105.826;2023-04-12T02:18:22;101287.53;;;23.56;100.00
76358;BME280;65185;21.060;105.826;2023-04-12T02:20:49;101289.47;;;23.55;100.00
76358;BME280;65185;21.060;105.826;2023-04-12T02:23:16;101293.34;;;23.54;100.00
76358;BME280;65185;21.060;105.826;2023-04-12T02:25:42;101290.91;;;23.61;100.00
76358;BME280;65185;21.060;105.826;2023-04-12T02:28:12;101287.19;;;23.57;100.00
76358;BME280;65185;21.060;105.826;2023-04-12T02:30:38;101294.28;;;23.58;100.00
76358;BME280;65185;21.060;105.826;2023-04-12T02:33:07;101290.75;;;23.58;100.00
76358;BME280;65185;21.060;105.826;2023-04-12T02:35:38;101286.41;;;23.57;100.00
76358;BME280;65185;21.060;105.826;2023-04-12T02:38:04;101282.38;;;23.54;100.00
76358;BME280;65185;21.060;105.826;2023-04-12T02:40:39;101281.56;;;23.54;100.00
76358;BME280;65185;21.060;105.826;2023-04-12T02:43:07;101284.78;;;23.56;100.00
76358;BME280;65185;21.060;105.826;2023-04-12T02:45:34;101286.72;;;23.55;100.00
76358;BME280;65185;21.060;105.826;2023-04-12T02:48:01;101279.63;;;23.54;100.00
76358;BME280;65185;21.060;105.826;2023-04-12T02:50:30;101278.81;;;23.54;100.00
76358;BME280;65185;21.060;105.826;2023-04-12T02:52:57;101275.28;;;23.53;100.00
76358;BME280;65185;21.060;105.826;2023-04-12T02:55:23;101271.41;;;23.54;100.00
76358;BME280;65185;21.060;105.826;2023-04-12T02:57:51;101265.13;;;23.54;100.00
76358;BME280;65185;21.060;105.826;2023-04-12T03:00:18;101274.16;;;23.54;100.00
76358;BME280;65185;21.060;105.826;2023-04-12T03:02:47;101259.63;;;23.54;100.00
76358;BME280;65185;21.060;105.826;2023-04-12T03:05:17;101260.44;;;23.54;100.00
76358;BME280;65185;21.060;105.826;2023-04-12T03:07:44;101255.28;;;23.53;100.00
76358;BME280;65185;21.060;105.826;2023-04-12T03:10:11;101250.91;;;23.52;100.00
76358;BME280;65185;21.060;105.826;2023-04-12T03:12:38;101259.63;;;23.54;100.00
76358;BME280;65185;21.060;105.826;2023-04-12T03:15:05;101242.38;;;23.53;100.00
76358;BME280;65185;21.060;105.826;2023-04-12T03:17:32;101245.94;;;23.54;100.00
76358;BME280;65185;21.060;105.826;2023-04-12T03:20:06;101247.06;;;23.53;100.00
76358;BME280;65185;21.060;105.826;2023-04-12T03:22:37;101250.28;;;23.55;100.00
76358;BME280;65185;21.060;105.826;2023-04-12T03:25:04;101247.53;;;23.55;100.00
76358;BME280;65185;21.060;105.826;2023-04-12T03:27:31;101238.31;;;23.59;100.00
76358;BME280;65185;21.060;105.826;2023-04-12T03:29:58;101240.25;;;23.59;100.00
76358;BME280;65185;21.060;105.826;2023-04-12T03:32:25;101236.38;;;23.60;100.00
76358;BME280;65185;21.060;105.826;2023-04-12T03:34:52;101234.56;;;23.64;100.00
76358;BME280;65185;21.060;105.826;2023-04-12T03:37:19;101238.44;;;23.63;100.00
76358;BME280;65185;21.060;105.826;2023-04-12T03:39:45;101231.84;;;23.64;100.00
76358;BME280;65185;21.060;105.826;2023-04-12T03:42:13;101220.22;;;23.67;100.00
76358;BME280;65185;21.060;105.826;2023-04-12T03:44:41;101220.22;;;23.67;100.00
76358;BME280;65185;21.060;105.826;2023-04-12T03:47:07;101214.72;;;23.67;100.00
76358;BME280;65185;21.060;105.826;2023-04-12T03:49:34;101219.41;;;23.67;100.00
76358;BME280;65185;21.060;105.826;2023-04-12T03:52:05;101218.91;;;23.73;100.00
76358;BME280;65185;21.060;105.826;2023-04-12T03:54:32;101203.88;;;23.71;100.00
76358;BME280;65185;21.060;105.826;2023-04-12T03:56:59;101206.63;;;23.71;100.00
76358;BME280;65185;21.060;105.826;2023-04-12T03:59:27;101210.19;;;23.71;100.00
76358;BME280;65185;21.060;105.826;2023-04-12T04:01:58;101203.09;;;23.70;100.00
76358;BME280;65185;21.060;105.826;2023-04-12T04:04:26;101200.34;;;23.70;100.00
76358;BME280;65185;21.060;105.826;2023-04-12T04:06:53;101195.34;;;23.72;100.00
76358;BME280;65185;21.060;105.826;2023-04-12T04:09:20;101191.25;;;23.78;100.00
76358;BME280;65185;21.060;105.826;2023-04-12T04:11:47;101195.75;;;23.83;100.00
76358;BME280;65185;21.060;105.826;2023-04-12T04:14:15;101189.47;;;23.82;100.00
76358;BME280;65185;21.060;105.826;2023-04-12T04:16:41;101186.03;;;23.85;100.00
76358;BME280;65185;21.060;105.826;2023-04-12T04:19:08;101181.22;;;23.82;100.00
76358;BME280;65185;21.060;105.826;2023-04-12T04:21:35;101176.53;;;23.83;100.00
76358;BME280;65185;21.060;105.826;2023-04-12T04:24:02;101173.13;;;23.86;100.00
76358;BME280;65185;21.060;105.826;2023-04-12T04:26:29;101169.56;;;23.85;100.00
76358;BME280;65185;21.060;105.826;2023-04-12T04:28:59;101166.81;;;23.85;100.00
76358;BME280;65185;21.060;105.826;2023-04-12T04:31:30;101155.53;;;23.87;100.00
76358;BME280;65185;21.060;105.826;2023-04-12T04:34:04;101166.06;;;23.85;100.00
76358;BME280;65185;21.060;105.826;2023-04-12T04:36:35;101159.06;;;23.87;100.00
76358;BME280;65185;21.060;105.826;2023-04-12T04:39:03;101144.22;;;23.88;100.00
76358;BME280;65185;21.060;105.826;2023-04-12T04:41:32;101139.41;;;23.85;100.00
76358;BME280;65185;21.060;105.826;2023-04-12T04:44:07;101133.38;;;23.92;100.00
76358;BME280;65185;21.060;105.826;2023-04-12T04:46:37;101133.38;;;23.92;100.00
76358;BME280;65185;21.060;105.826;2023-04-12T04:49:05;101128.91;;;23.87;100.00
76358;BME280;65185;21.060;105.826;2023-04-12T04:51:32;101119.75;;;23.83;100.00
76358;BME280;65185;21.060;105.826;2023-04-12T04:53:59;101109.22;;;23.85;100.00
76358;BME280;65185;21.060;105.826;2023-04-12T04:56:27;101106.63;;;23.89;100.00
76358;BME280;65185;21.060;105.826;2023-04-12T04:58:54;101106.97;;;23.87;100.00
76358;BME280;65185;21.060;105.826;2023-04-12T05:01:20;101097.72;;;23.92;100.00
76358;BME280;65185;21.060;105.826;2023-04-12T05:03:51;101094.53;;;23.90;100.00
76358;BME280;65185;21.060;105.826;2023-04-12T05:06:17;101096.47;;;23.89;100.00
76358;BME280;65185;21.060;105.826;2023-04-12T05:08:44;101093.72;;;23.89;100.00
76358;BME280;65185;21.060;105.826;2023-04-12T05:11:11;101087.53;;;23.92;100.00
76358;BME280;65185;21.060;105.826;2023-04-12T05:13:37;101084.81;;;23.92;100.00
76358;BME280;65185;21.060;105.826;2023-04-12T05:16:07;101083.19;;;23.91;100.00
76358;BME280;65185;21.060;105.826;2023-04-12T05:18:34;101085.13;;;23.91;100.00
76358;BME280;65185;21.060;105.826;2023-04-12T05:21:02;101073.38;;;23.90;100.00
76358;BME280;65185;21.060;105.826;2023-04-12T05:23:50;101072.91;;;23.88;100.00
76358;BME280;65185;21.060;105.826;2023-04-12T05:26:17;101065.81;;;23.87;100.00
76358;BME280;65185;21.060;105.826;2023-04-12T05:28:43;101058.06;;;23.89;100.00
76358;BME280;65185;21.060;105.826;2023-04-12T05:31:10;101048.69;;;23.90;100.00
76358;BME280;65185;21.060;105.826;2023-04-12T05:33:37;101053.38;;;23.90;100.00
76358;BME280;65185;21.060;105.826;2023-04-12T05:36:05;101040.47;;;23.90;100.00
76358;BME280;65185;21.060;105.826;2023-04-12T05:38:31;101036.22;;;23.93;100.00
76358;BME280;65185;21.060;105.826;2023-04-12T05:40:58;101032.59;;;24.01;100.00
76358;BME280;65185;21.060;105.826;2023-04-12T05:43:29;101036.75;;;24.07;100.00
76358;BME280;65185;21.060;105.826;2023-04-12T05:45:55;101025.28;;;24.05;100.00
76358;BME280;65185;21.060;105.826;2023-04-12T05:48:22;101018.53;;;24.02;100.00
76358;BME280;65185;21.060;105.826;2023-04-12T05:50:52;101009.84;;;24.00;100.00
76358;BME280;65185;21.060;105.826;2023-04-12T05:53:20;101007.78;;;23.97;100.00
76358;BME280;65185;21.060;105.826;2023-04-12T05:55:47;101006.88;;;24.06;100.00
76358;BME280;65185;21.060;105.826;2023-04-12T05:58:14;100998.19;;;24.03;100.00
76358;BME280;65185;21.060;105.826;2023-04-12T06:00:41;100992.03;;;24.07;100.00
76358;BME280;65185;21.060;105.826;2023-04-12T06:03:08;100983.81;;;24.19;100.00
76358;BME280;65185;21.060;105.826;2023-04-12T06:05:37;100977.28;;;24.11;100.00
76358;BME280;65185;21.060;105.826;2023-04-12T06:08:03;100973.75;;;24.11;100.00
76358;BME280;65185;21.060;105.826;2023-04-12T06:10:30;100971.50;;;24.25;100.00
76358;BME280;65185;21.060;105.826;2023-04-12T06:12:57;100964.06;;;24.37;100.00
76358;BME280;65185;21.060;105.826;2023-04-12T06:15:24;100953.88;;;24.38;100.00
76358;BME280;65185;21.060;105.826;2023-04-12T06:17:51;100957.19;;;24.31;100.00
76358;BME280;65185;21.060;105.826;2023-04-12T06:20:18;100957.09;;;24.28;100.00
76358;BME280;65185;21.060;105.826;2023-04-12T06:22:44;100937.41;;;24.26;100.00
76358;BME280;65185;21.060;105.826;2023-04-12T06:25:11;100939.00;;;24.27;100.00
76358;BME280;65185;21.060;105.826;2023-04-12T06:27:38;100936.28;;;24.27;100.00
76358;BME280;65185;21.060;105.826;2023-04-12T06:30:05;100933.53;;;24.27;100.00
76358;BME280;65185;21.060;105.826;2023-04-12T06:32:32;100926.91;;;24.28;100.00
76358;BME280;65185;21.060;105.826;2023-04-12T06:34:59;100927.91;;;24.35;100.00
76358;BME280;65185;21.060;105.826;2023-04-12T06:37:25;100922.78;;;24.34;100.00
76358;BME280;65185;21.060;105.826;2023-04-12T06:39:52;100916.59;;;24.37;100.00
76358;BME280;65185;21.060;105.826;2023-04-12T06:42:19;100909.06;;;24.34;100.00
76358;BME280;65185;21.060;105.826;2023-04-12T06:44:45;100907.44;;;24.33;100.00
76358;BME280;65185;21.060;105.826;2023-04-12T06:47:12;100901.06;;;24.29;100.00
76358;BME280;65185;21.060;105.826;2023-04-12T06:49:40;100896.81;;;24.43;100.00
76358;BME280;65185;21.060;105.826;2023-04-12T06:52:07;100888.00;;;24.38;100.00
76358;BME280;65185;21.060;105.826;2023-04-12T06:54:37;100885.41;;;24.29;100.00
76358;BME280;65185;21.060;105.826;2023-04-12T06:57:08;100883.66;;;24.25;100.00
76358;BME280;65185;21.060;105.826;2023-04-12T06:59:38;100870.41;;;24.27;100.00
76358;BME280;65185;21.060;105.826;2023-04-12T07:02:05;100878.28;;;24.28;100.00
76358;BME280;65185;21.060;105.826;2023-04-12T07:04:32;100868.69;;;24.22;100.00
76358;BME280;65185;21.060;105.826;2023-04-12T07:07:00;100871.53;;;24.26;100.00
76358;BME280;65185;21.060;105.826;2023-04-12T07:09:29;100864.44;;;24.25;100.00
76358;BME280;65185;21.060;105.826;2023-04-12T07:11:57;100869.50;;;24.35;100.00
76358;BME280;65185;21.060;105.826;2023-04-12T07:14:24;100863.63;;;24.36;100.00
76358;BME280;65185;21.060;105.826;2023-04-12T07:16:51;100857.00;;;24.37;100.00
76358;BME280;65185;21.060;105.826;2023-04-12T07:19:18;100853.91;;;24.39;100.00
76358;BME280;65185;21.060;105.826;2023-04-12T07:21:45;100850.63;;;24.33;100.00
76358;BME280;65185;21.060;105.826;2023-04-12T07:24:12;100859.88;;;24.29;100.00
76358;BME280;65185;21.060;105.826;2023-04-12T07:26:39;100855.53;;;24.28;100.00
76358;BME280;65185;21.060;105.826;2023-04-12T07:29:05;100842.03;;;24.35;100.00
76358;BME280;65185;21.060;105.826;2023-04-12T07:31:32;67626.38;;;-142.84;100.00
76358;BME280;65185;21.060;105.826;2023-04-12T07:33:59;67626.38;;;-142.84;100.00
76358;BME280;65185;21.060;105.826;2023-04-12T07:36:26;67626.38;;;-142.84;100.00
76358;BME280;65185;21.060;105.826;2023-04-12T07:38:53;67626.38;;;-142.84;100.00
76358;BME280;65185;21.060;105.826;2023-04-12T07:41:22;67626.38;;;-142.84;100.00
76358;BME280;65185;21.060;105.826;2023-04-12T07:43:48;67626.38;;;-142.84;100.00
76358;BME280;65185;21.060;105.826;2023-04-12T07:46:20;67626.38;;;-142.84;100.00
76358;BME280;65185;21.060;105.826;2023-04-12T07:48:47;67626.38;;;-142.84;100.00
76358;BME280;65185;21.060;105.826;2023-04-12T07:51:13;67626.38;;;-142.84;100.00
76358;BME280;65185;21.060;105.826;2023-04-12T07:53:40;67626.38;;;-142.84;100.00
76358;BME280;65185;21.060;105.826;2023-04-12T07:56:07;67626.38;;;-142.84;100.00
76358;BME280;65185;21.060;105.826;2023-04-12T07:58:37;67626.38;;;-142.84;100.00
76358;BME280;65185;21.060;105.826;2023-04-12T08:01:04;67626.38;;;-142.84;100.00
76358;BME280;65185;21.060;105.826;2023-04-12T08:03:32;67626.38;;;-142.84;100.00
76358;BME280;65185;21.060;105.826;2023-04-12T08:05:58;67626.38;;;-142.84;100.00
76358;BME280;65185;21.060;105.826;2023-04-12T08:08:25;67626.38;;;-142.84;100.00
76358;BME280;65185;21.060;105.826;2023-04-12T08:10:52;67626.38;;;-142.84;100.00
76358;BME280;65185;21.060;105.826;2023-04-12T08:13:19;67626.38;;;-142.84;100.00
76358;BME280;65185;21.060;105.826;2023-04-12T08:15:46;67626.38;;;-142.84;100.00
76358;BME280;65185;21.060;105.826;2023-04-12T08:18:13;67626.38;;;-142.84;100.00
76358;BME280;65185;21.060;105.826;2023-04-12T08:20:40;67626.38;;;-142.84;100.00
76358;BME280;65185;21.060;105.826;2023-04-12T08:23:10;67626.38;;;-142.84;100.00
76358;BME280;65185;21.060;105.826;2023-04-12T08:25:37;67626.38;;;-142.84;100.00
76358;BME280;65185;21.060;105.826;2023-04-12T08:28:04;67626.38;;;-142.84;100.00
76358;BME280;65185;21.060;105.826;2023-04-12T08:30:34;67626.38;;;-142.84;100.00
76358;BME280;65185;21.060;105.826;2023-04-12T08:33:08;67626.38;;;-142.84;100.00
76358;BME280;65185;21.060;105.826;2023-04-12T08:35:35;67626.38;;;-142.84;100.00
76358;BME280;65185;21.060;105.826;2023-04-12T08:38:02;67626.38;;;-142.84;100.00
76358;BME280;65185;21.060;105.826;2023-04-12T08:40:32;67626.38;;;-142.84;100.00
76358;BME280;65185;21.060;105.826;2023-04-12T08:43:06;67626.38;;;-142.84;100.00
76358;BME280;65185;21.060;105.826;2023-04-12T08:45:36;67626.38;;;-142.84;100.00
76358;BME280;65185;21.060;105.826;2023-04-12T08:48:06;67626.38;;;-142.84;100.00
76358;BME280;65185;21.060;105.826;2023-04-12T08:50:33;67626.38;;;-142.84;100.00
76358;BME280;65185;21.060;105.826;2023-04-12T08:52:59;67626.38;;;-142.84;100.00
76358;BME280;65185;21.060;105.826;2023-04-12T08:55:26;67626.38;;;-142.84;100.00
76358;BME280;65185;21.060;105.826;2023-04-12T08:57:53;67626.38;;;-142.84;100.00
76358;BME280;65185;21.060;105.826;2023-04-12T09:00:23;67626.38;;;-142.84;100.00
76358;BME280;65185;21.060;105.826;2023-04-12T09:02:50;67626.38;;;-142.84;100.00
76358;BME280;65185;21.060;105.826;2023-04-12T09:05:17;67626.38;;;-142.84;100.00
76358;BME280;65185;21.060;105.826;2023-04-12T09:07:43;67626.38;;;-142.84;100.00
76358;BME280;65185;21.060;105.826;2023-04-12T09:10:10;67626.38;;;-142.84;100.00
76358;BME280;65185;21.060;105.826;2023-04-12T09:12:54;67626.38;;;-142.84;100.00
76358;BME280;65185;21.060;105.826;2023-04-12T09:15:21;67626.38;;;-142.84;100.00
76358;BME280;65185;21.060;105.826;2023-04-12T09:17:47;67626.38;;;-142.84;100.00
76358;BME280;65185;21.060;105.826;2023-04-12T09:22:43;67626.38;;;-142.84;100.00
76358;BME280;65185;21.060;105.826;2023-04-12T09:25:11;67626.38;;;-142.84;100.00
76358;BME280;65185;21.060;105.826;2023-04-12T09:27:49;67626.38;;;-142.84;100.00
76358;BME280;65185;21.060;105.826;2023-04-12T09:30:17;67626.38;;;-142.84;100.00
76358;BME280;65185;21.060;105.826;2023-04-12T09:32:44;67626.38;;;-142.84;100.00
76358;BME280;65185;21.060;105.826;2023-04-12T09:35:11;67626.38;;;-142.84;100.00
76358;BME280;65185;21.060;105.826;2023-04-12T09:37:37;67626.38;;;-142.84;100.00
76358;BME280;65185;21.060;105.826;2023-04-12T09:40:09;67626.38;;;-142.84;100.00
76358;BME280;65185;21.060;105.826;2023-04-12T09:42:49;67626.38;;;-142.84;100.00
76358;BME280;65185;21.060;105.826;2023-04-12T09:45:23;67626.38;;;-142.84;100.00
76358;BME280;65185;21.060;105.826;2023-04-12T09:47:51;67626.38;;;-142.84;100.00
76358;BME280;65185;21.060;105.826;2023-04-12T09:50:20;67626.38;;;-142.84;100.00
76358;BME280;65185;21.060;105.826;2023-04-12T09:52:48;67626.38;;;-142.84;100.00
76358;BME280;65185;21.060;105.826;2023-04-12T09:55:15;67626.38;;;-142.84;100.00
76358;BME280;65185;21.060;105.826;2023-04-12T09:57:43;67626.38;;;-142.84;100.00
76358;BME280;65185;21.060;105.826;2023-04-12T10:00:11;67626.38;;;-142.84;100.00
76358;BME280;65185;21.060;105.826;2023-04-12T10:02:49;67626.38;;;-142.84;100.00
76358;BME280;65185;21.060;105.826;2023-04-12T10:05:17;67626.38;;;-142.84;100.00
76358;BME280;65185;21.060;105.826;2023-04-12T10:07:45;67626.38;;;-142.84;100.00
76358;BME280;65185;21.060;105.826;2023-04-12T10:10:16;67626.38;;;-142.84;100.00
76358;BME280;65185;21.060;105.826;2023-04-12T10:12:44;67626.38;;;-142.84;100.00
76358;BME280;65185;21.060;105.826;2023-04-12T10:15:12;67626.38;;;-142.84;100.00
76358;BME280;65185;21.060;105.826;2023-04-12T10:17:44;67626.38;;;-142.84;100.00
76358;BME280;65185;21.060;105.826;2023-04-12T10:20:16;67626.38;;;-142.84;100.00
76358;BME280;65185;21.060;105.826;2023-04-12T10:22:52;67626.38;;;-142.84;100.00
76358;BME280;65185;21.060;105.826;2023-04-12T10:25:23;67626.38;;;-142.84;100.00
76358;BME280;65185;21.060;105.826;2023-04-12T10:27:50;67626.38;;;-142.84;100.00
76358;BME280;65185;21.060;105.826;2023-04-12T10:30:21;67626.38;;;-142.84;100.00
76358;BME280;65185;21.060;105.826;2023-04-12T10:35:50;67626.38;;;-142.84;100.00
76358;BME280;65185;21.060;105.826;2023-04-12T10:38:28;67626.38;;;-142.84;100.00
76358;BME280;65185;21.060;105.826;2023-04-12T10:41:14;67626.38;;;-142.84;100.00
76358;BME280;65185;21.060;105.826;2023-04-12T10:43:45;67626.38;;;-142.84;100.00
76358;BME280;65185;21.060;105.826;2023-04-12T10:49:13;67626.38;;;-142.84;100.00
76358;BME280;65185;21.060;105.826;2023-04-12T10:54:35;67626.38;;;-142.84;100.00
76358;BME280;65185;21.060;105.826;2023-04-12T10:57:05;67626.38;;;-142.84;100.00
76358;BME280;65185;21.060;105.826;2023-04-12T10:59:54;67626.38;;;-142.84;100.00
76358;BME280;65185;21.060;105.826;2023-04-12T11:02:24;67626.38;;;-142.84;100.00
76358;BME280;65185;21.060;105.826;2023-04-12T11:05:08;67626.38;;;-142.84;100.00
76358;BME280;65185;21.060;105.826;2023-04-12T11:07:38;67626.38;;;-142.84;100.00
76358;BME280;65185;21.060;105.826;2023-04-12T11:10:16;67626.38;;;-142.84;100.00
76358;BME280;65185;21.060;105.826;2023-04-12T11:12:52;67626.38;;;-142.84;100.00
76358;BME280;65185;21.060;105.826;2023-04-12T11:15:30;67626.38;;;-142.84;100.00
76358;BME280;65185;21.060;105.826;2023-04-12T11:17:59;67626.38;;;-142.84;100.00
76358;BME280;65185;21.060;105.826;2023-04-12T11:20:26;67626.38;;;-142.84;100.00
76358;BME280;65185;21.060;105.826;2023-04-12T11:22:52;67626.38;;;-142.84;100.00
76358;BME280;65185;21.060;105.826;2023-04-12T11:25:20;67626.38;;;-142.84;100.00
76358;BME280;65185;21.060;105.826;2023-04-12T11:27:49;67626.38;;;-142.84;100.00
76358;BME280;65185;21.060;105.826;2023-04-12T11:30:16;67626.38;;;-142.84;100.00
76358;BME280;65185;21.060;105.826;2023-04-12T11:32:45;67626.38;;;-142.84;100.00
76358;BME280;65185;21.060;105.826;2023-04-12T11:35:14;67626.38;;;-142.84;100.00
76358;BME280;65185;21.060;105.826;2023-04-12T11:37:48;67626.38;;;-142.84;100.00
76358;BME280;65185;21.060;105.826;2023-04-12T11:40:15;67626.38;;;-142.84;100.00
76358;BME280;65185;21.060;105.826;2023-04-12T11:42:42;67626.38;;;-142.84;100.00
76358;BME280;65185;21.060;105.826;2023-04-12T11:45:09;67626.38;;;-142.84;100.00
76358;BME280;65185;21.060;105.826;2023-04-12T11:47:41;67626.38;;;-142.84;100.00
76358;BME280;65185;21.060;105.826;2023-04-12T11:50:08;67626.38;;;-142.84;100.00
76358;BME280;65185;21.060;105.826;2023-04-12T11:52:35;67626.38;;;-142.84;100.00
76358;BME280;65185;21.060;105.826;2023-04-12T11:55:04;67626.38;;;-142.84;100.00
76358;BME280;65185;21.060;105.826;2023-04-12T11:57:36;67626.38;;;-142.84;100.00
76358;BME280;65185;21.060;105.826;2023-04-12T12:00:04;67626.38;;;-142.84;100.00
76358;BME280;65185;21.060;105.826;2023-04-12T12:02:33;67626.38;;;-142.84;100.00
76358;BME280;65185;21.060;105.826;2023-04-12T12:05:00;67626.38;;;-142.84;100.00
76358;BME280;65185;21.060;105.826;2023-04-12T12:07:27;67626.38;;;-142.84;100.00
76358;BME280;65185;21.060;105.826;2023-04-12T12:09:53;67626.38;;;-142.84;100.00
76358;BME280;65185;21.060;105.826;2023-04-12T12:12:22;67626.38;;;-142.84;100.00
76358;BME280;65185;21.060;105.826;2023-04-12T12:14:49;67626.38;;;-142.84;100.00
76358;BME280;65185;21.060;105.826;2023-04-12T12:17:16;67626.38;;;-142.84;100.00
76358;BME280;65185;21.060;105.826;2023-04-12T12:19:44;67626.38;;;-142.84;100.00
76358;BME280;65185;21.060;105.826;2023-04-12T12:22:18;67626.38;;;-142.84;100.00
76358;BME280;65185;21.060;105.826;2023-04-12T12:24:49;67626.38;;;-142.84;100.00
76358;BME280;65185;21.060;105.826;2023-04-12T12:27:21;67626.38;;;-142.84;100.00
76358;BME280;65185;21.060;105.826;2023-04-12T12:29:49;67626.38;;;-142.84;100.00
76358;BME280;65185;21.060;105.826;2023-04-12T12:32:16;67626.38;;;-142.84;100.00
76358;BME280;65185;21.060;105.826;2023-04-12T12:34:54;67626.38;;;-142.84;100.00
76358;BME280;65185;21.060;105.826;2023-04-12T12:37:25;67626.38;;;-142.84;100.00
76358;BME280;65185;21.060;105.826;2023-04-12T12:42:44;67626.38;;;-142.84;100.00
76358;BME280;65185;21.060;105.826;2023-04-12T12:45:12;67626.38;;;-142.84;100.00
76358;BME280;65185;21.060;105.826;2023-04-12T12:47:53;67626.38;;;-142.84;100.00
76358;BME280;65185;21.060;105.826;2023-04-12T12:50:25;67626.38;;;-142.84;100.00
76358;BME280;65185;21.060;105.826;2023-04-12T12:52:52;67626.38;;;-142.84;100.00